Gregory, Kentucky
Current Conditions -  °F | °C
As of 5:56 PM on Saturday 25 Oct 2014 (Local Time) from KEKQ Reporting Station
Clear Clear  
Wind Chill: 71°   Ceiling: Unl
Heat Index: 71°   Visibility: 9mi
Dew Point: 57°   Wind: 7mph
Humidity: 61%   Direction: 240°WSW
Pressure: 30.02"   Gusts: NA
Location:  36.8129°N, 84.8215°W
Report Text: KEKQ 252156Z AUTO 24006KT 9SM CLR 22/14 A3002 RMK AO2 T02160138 SLP171
Loading
Personal Weather Stations






























Interactive Weather Map
Tropical Storm Tracking
New forecast layout! Learn more

10-Day Weather Forecast

Advertisements
Track Severe Weather on mobile